Terminal Aerodrome Forecast
Issued by NWS Detroit/Pontiac, MI

Home | Current Version | Previous Version | Text Only | Print | Product List | Glossary On
Versions: 1 2 3 4 5 6 7 8 9 10 11 12 13 14 15 16 17 18
000
FTUS43 KDTX 201732
TAFFNT
TAF
KFNT 201732Z 2018/2118 21015G22KT 6SM -SHRA BR SCT020 OVC050
     FM202000 20012KT 5SM -RA BR SCT011 OVC020
     FM210600 27010KT 4SM -RA BR OVC015
     FM211200 31010KT 6SM BR BKN015 OVC025=

USA.gov is the U.S. government's official web portal to all federal, state and local government web resources and services.